Terminal Aerodrome Forecast
Issued by NWS

Home | Current Version | Previous Version | Text Only | Print | Product List | Glossary On
Versions: 1 2 3 4 5 6 7 8 9 10 11 12 13 14 15
000
FTUS45 KABQ 281748 RRA
TAFGUP
TAF
KGUP 281748Z 2818/2918 30011KT P6SM VCSH BKN019 BKN040
     FM282100 33015G25KT P6SM VCTS SCT020 BKN040CB
      TEMPO 2821/2824 -SHRA BKN030
     FM290000 33015G23KT P6SM VCSH BKN040
     FM290500 33010KT P6SM BKN060=

USA.gov is the U.S. government's official web portal to all federal, state and local government web resources and services.